Time;durP1;ratioP1;P1;durP2;ratioP2;P2;SDS_P1;SDS_P2;PMS_P1;PMS_P2;Temp;Humidity;BMP_temperature;BMP_pressure;BME280_temperature;BME280_humidity;BME280_pressure;Samples;Min_cycle;Max_cycle;Signal;HPM_P1;HPM_P2
2024/01/15 00:00:42;;;;;;;;;;;;;;;8.74;47.40;98766.97;4925614;28;98426;-69
2024/01/15 00:03:09;;;;;;;;;;;;;;;8.74;47.15;98752.75;4924243;28;99587;-65
2024/01/15 00:05:35;;;;;;;;;;;;;;;8.74;46.82;98755.44;4939239;28;99907;-70
2024/01/15 00:08:01;;;;;;;;;;;;;;;8.74;46.58;98750.06;4929110;28;99010;-65
2024/01/15 00:10:27;;;;;;;;;;;;;;;8.75;47.19;98746.25;4925427;28;119434;-70
2024/01/15 00:12:53;;;;;;;;;;;;;;;8.74;47.23;98739.31;4929295;28;131160;-65
2024/01/15 00:15:19;;;;;;;;;;;;;;;8.75;47.49;98738.22;4926353;28;118376;-70
2024/01/15 00:17:45;;;;;;;;;;;;;;;8.74;46.84;98734.72;4942307;28;98143;-70
2024/01/15 00:20:11;;;;;;;;;;;;;;;8.75;46.73;98733.63;4924044;28;98167;-70
2024/01/15 00:22:38;;;;;;;;;;;;;;;8.74;47.11;98721.28;4943308;28;97985;-70
2024/01/15 00:25:04;;;;;;;;;;;;;;;8.74;46.75;98731.25;4939056;28;98858;-69
2024/01/15 00:27:30;;;;;;;;;;;;;;;8.74;47.33;98717.81;4939870;28;97976;-69
2024/01/15 00:29:57;;;;;;;;;;;;;;;8.74;46.85;98723.19;4925507;28;98389;-69
2024/01/15 00:32:23;;;;;;;;;;;;;;;8.74;46.88;98720.50;4925040;28;98002;-69
2024/01/15 00:34:50;;;;;;;;;;;;;;;8.74;47.13;98723.97;4942406;28;98368;-69
2024/01/15 00:37:16;;;;;;;;;;;;;;;8.75;46.76;98714.03;4927735;28;98718;-70
2024/01/15 00:39:42;;;;;;;;;;;;;;;8.74;47.07;98710.53;4925312;28;99130;-65
2024/01/15 00:42:08;;;;;;;;;;;;;;;8.75;47.05;98708.66;4941052;28;99666;-69
2024/01/15 00:44:34;;;;;;;;;;;;;;;8.74;46.92;98712.44;4929552;28;99488;-65
2024/01/15 00:47:01;;;;;;;;;;;;;;;8.74;46.88;98710.53;4927591;28;101829;-69
2024/01/15 00:49:27;;;;;;;;;;;;;;;8.75;47.36;98709.44;4942382;28;98637;-65
2024/01/15 00:51:53;;;;;;;;;;;;;;;8.75;46.99;98701.38;4928059;28;97986;-65
2024/01/15 00:54:19;;;;;;;;;;;;;;;8.76;47.41;98707.56;4943436;28;98191;-69
2024/01/15 00:56:45;;;;;;;;;;;;;;;8.74;47.52;98699.81;4925056;28;101599;-69
2024/01/15 00:59:14;;;;;;;;;;;;;;;8.75;47.45;98693.31;4948244;28;98118;-70
2024/01/15 01:01:42;;;;;;;;;;;;;;;8.75;47.25;98679.91;4927815;28;98188;-65
2024/01/15 01:04:09;;;;;;;;;;;;;;;8.76;47.02;98680.69;4941415;28;97929;-69
2024/01/15 01:06:35;;;;;;;;;;;;;;;8.75;47.16;98684.47;4931971;28;98137;-65
2024/01/15 01:09:01;;;;;;;;;;;;;;;8.76;47.44;98678.00;4925401;28;98652;-69
2024/01/15 01:11:27;;;;;;;;;;;;;;;8.76;47.08;98669.94;4942575;28;101371;-65
2024/01/15 01:13:53;;;;;;;;;;;;;;;8.75;46.79;98671.84;4936826;28;98364;-70
2024/01/15 01:16:19;;;;;;;;;;;;;;;8.76;46.86;98672.63;4930757;28;99288;-65
2024/01/15 01:18:45;;;;;;;;;;;;;;;8.77;47.31;98676.94;4943404;28;98934;-65
2024/01/15 01:21:11;;;;;;;;;;;;;;;8.76;46.89;98673.44;4927847;28;100019;-65
2024/01/15 01:23:37;;;;;;;;;;;;;;;8.77;47.14;98668.88;4942830;28;98762;-69
2024/01/15 01:26:03;;;;;;;;;;;;;;;8.76;46.88;98676.13;4958267;28;97971;-65
2024/01/15 01:28:29;;;;;;;;;;;;;;;8.77;46.42;98669.66;4933148;28;110116;-69
2024/01/15 01:30:56;;;;;;;;;;;;;;;8.76;47.11;98662.69;4925425;28;98400;-65
2024/01/15 01:33:22;;;;;;;;;;;;;;;8.77;46.66;98664.28;4939409;28;97994;-70
2024/01/15 01:35:48;;;;;;;;;;;;;;;8.76;47.17;98665.38;4928474;28;97944;-70
2024/01/15 01:38:14;;;;;;;;;;;;;;;8.76;47.04;98660.00;4925344;28;98366;-70
2024/01/15 01:40:40;;;;;;;;;;;;;;;8.76;47.38;98660.00;4940483;28;98227;-65
2024/01/15 01:43:06;;;;;;;;;;;;;;;8.77;46.82;98660.81;4941633;28;99118;-65
2024/01/15 01:45:32;;;;;;;;;;;;;;;8.76;46.92;98653.81;4921997;28;98212;-65
2024/01/15 01:47:59;;;;;;;;;;;;;;;8.75;47.31;98652.22;4928020;28;99916;-65
2024/01/15 01:50:25;;;;;;;;;;;;;;;8.74;47.28;98631.84;4928147;28;98290;-69
2024/01/15 01:52:51;;;;;;;;;;;;;;;8.71;46.84;98633.22;4924755;28;115628;-70
2024/01/15 01:55:17;;;;;;;;;;;;;;;8.70;46.60;98630.84;4943196;28;98254;-69
2024/01/15 01:57:44;;;;;;;;;;;;;;;8.69;46.73;98634.63;4925858;28;99854;-65
2024/01/15 02:00:10;;;;;;;;;;;;;;;8.67;46.74;98631.44;4942994;28;98052;-70
2024/01/15 02:02:37;;;;;;;;;;;;;;;8.66;46.99;98629.84;4927410;28;100393;-70
2024/01/15 02:05:04;;;;;;;;;;;;;;;8.63;47.02;98623.19;4943255;28;97871;-65
2024/01/15 02:07:30;;;;;;;;;;;;;;;8.64;46.98;98627.44;4927345;28;98350;-69
2024/01/15 02:09:56;;;;;;;;;;;;;;;8.63;47.32;98617.03;4941832;28;98000;-70
2024/01/15 02:12:22;;;;;;;;;;;;;;;8.63;47.12;98619.72;4924906;28;99974;-69
2024/01/15 02:14:48;;;;;;;;;;;;;;;8.59;46.80;98606.06;4931346;28;101722;-67
2024/01/15 02:17:15;;;;;;;;;;;;;;;8.62;46.58;98610.06;4943590;28;98833;-69
2024/01/15 02:19:41;;;;;;;;;;;;;;;8.59;47.08;98598.81;4929732;28;98825;-70
2024/01/15 02:22:07;;;;;;;;;;;;;;;8.60;46.83;98621.88;4947302;28;98298;-70
2024/01/15 02:24:33;;;;;;;;;;;;;;;8.59;47.39;98619.50;4928478;28;98192;-70
2024/01/15 02:26:59;;;;;;;;;;;;;;;8.59;47.44;98616.81;4935383;28;101422;-69
2024/01/15 02:29:25;;;;;;;;;;;;;;;8.59;46.96;98616.81;4943049;28;99723;-65
2024/01/15 02:31:51;;;;;;;;;;;;;;;8.58;46.75;98607.19;4927999;28;98004;-69
2024/01/15 02:34:17;;;;;;;;;;;;;;;8.57;47.03;98598.31;4933911;28;119836;-65
2024/01/15 02:36:43;;;;;;;;;;;;;;;8.58;46.75;98596.44;4926494;28;128074;-65
2024/01/15 02:39:09;;;;;;;;;;;;;;;8.56;47.12;98599.41;4929688;28;98301;-69
2024/01/15 02:41:35;;;;;;;;;;;;;;;8.56;46.99;98598.59;4932018;28;98210;-65
2024/01/15 02:44:01;;;;;;;;;;;;;;;8.55;46.61;98597.03;4944423;28;105607;-70
2024/01/15 02:46:27;;;;;;;;;;;;;;;8.54;46.99;98598.91;4944992;28;99374;-69
2024/01/15 02:48:54;;;;;;;;;;;;;;;8.55;47.02;98603.19;4931096;28;97869;-69
2024/01/15 02:51:20;;;;;;;;;;;;;;;8.53;47.25;98594.66;4942195;28;98371;-65
2024/01/15 02:53:47;;;;;;;;;;;;;;;8.55;46.55;98597.03;4943306;28;98090;-70
2024/01/15 02:56:14;;;;;;;;;;;;;;;8.54;46.68;98596.22;4924533;28;98061;-70
2024/01/15 02:58:40;;;;;;;;;;;;;;;8.53;46.54;98591.97;4931590;28;98318;-69
2024/01/15 03:01:06;;;;;;;;;;;;;;;8.53;46.55;98604.59;4959413;28;110076;-65
2024/01/15 03:03:33;;;;;;;;;;;;;;;8.52;46.83;98594.94;4936424;28;97883;-70
2024/01/15 03:05:59;;;;;;;;;;;;;;;8.52;47.31;98595.72;4932546;28;99439;-70
2024/01/15 03:08:25;;;;;;;;;;;;;;;8.52;47.50;98597.63;4926856;28;99824;-65
2024/01/15 03:10:52;;;;;;;;;;;;;;;8.51;46.93;98596.03;4945546;28;97817;-70
2024/01/15 03:13:19;;;;;;;;;;;;;;;8.51;47.38;98606.78;4935177;28;98159;-70
2024/01/15 03:15:45;;;;;;;;;;;;;;;8.51;47.18;98601.41;4940174;28;102301;-70
2024/01/15 03:18:11;;;;;;;;;;;;;;;8.50;47.46;98608.66;4931649;28;100834;-70
2024/01/15 03:20:37;;;;;;;;;;;;;;;8.50;46.68;98607.88;4930350;28;98466;-69
2024/01/15 03:23:03;;;;;;;;;;;;;;;8.49;46.57;98608.94;4925524;28;98027;-70
2024/01/15 03:25:29;;;;;;;;;;;;;;;8.49;46.67;98606.25;4926113;28;98198;-70
2024/01/15 03:27:55;;;;;;;;;;;;;;;8.49;47.42;98601.72;4929881;28;98155;-65
2024/01/15 03:30:22;;;;;;;;;;;;;;;8.48;46.88;98613.53;4930031;28;128356;-65
2024/01/15 03:32:49;;;;;;;;;;;;;;;8.47;46.77;98605.78;4929571;28;98231;-70
2024/01/15 03:35:16;;;;;;;;;;;;;;;8.47;47.52;98609.25;4928715;28;98027;-70
2024/01/15 03:37:42;;;;;;;;;;;;;;;8.48;46.89;98610.06;4927381;28;98554;-65
2024/01/15 03:40:09;;;;;;;;;;;;;;;8.46;47.41;98621.09;4923734;28;109567;-66
2024/01/15 03:42:35;;;;;;;;;;;;;;;8.46;46.53;98613.03;4925121;28;98194;-65
2024/01/15 03:45:01;;;;;;;;;;;;;;;8.45;46.69;98622.19;4940765;28;99495;-70
2024/01/15 03:47:27;;;;;;;;;;;;;;;8.46;46.97;98615.72;4946166;28;98317;-65
2024/01/15 03:49:53;;;;;;;;;;;;;;;8.46;47.17;98620.31;4929832;28;116215;-65
2024/01/15 03:52:19;;;;;;;;;;;;;;;8.46;47.51;98614.94;4943674;28;98218;-65
2024/01/15 03:54:45;;;;;;;;;;;;;;;8.46;46.61;98618.41;4927771;28;98387;-65
2024/01/15 03:57:11;;;;;;;;;;;;;;;8.46;47.41;98615.72;4929988;28;98198;-69
2024/01/15 03:59:37;;;;;;;;;;;;;;;8.47;47.28;98619.22;4945003;28;99459;-69
2024/01/15 04:02:04;;;;;;;;;;;;;;;8.47;47.03;98613.84;4925157;28;98264;-69
2024/01/15 04:04:30;;;;;;;;;;;;;;;8.46;46.93;98609.56;4930203;28;98070;-64
2024/01/15 04:06:56;;;;;;;;;;;;;;;8.46;47.20;98614.94;4927404;28;99896;-68
2024/01/15 04:09:22;;;;;;;;;;;;;;;8.45;47.48;98618.69;4926306;28;98522;-65
2024/01/15 04:11:48;;;;;;;;;;;;;;;8.45;47.30;98618.69;4930937;28;98041;-64
2024/01/15 04:14:14;;;;;;;;;;;;;;;8.45;46.92;98622.19;4926378;28;103275;-65
2024/01/15 04:16:41;;;;;;;;;;;;;;;8.50;46.98;98614.03;4925383;28;107051;-64
2024/01/15 04:19:07;;;;;;;;;;;;;;;8.56;46.85;98610.16;4931317;28;99470;-65
2024/01/15 04:21:33;;;;;;;;;;;;;;;8.63;46.63;98614.34;4926628;28;98932;-64
2024/01/15 04:23:59;;;;;;;;;;;;;;;8.69;46.75;98618.53;4929583;28;99656;-65
2024/01/15 04:26:25;;;;;;;;;;;;;;;8.72;47.26;98615.22;4927676;28;98559;-69
2024/01/15 04:28:51;;;;;;;;;;;;;;;8.76;47.18;98614.34;4928673;28;98815;-65
2024/01/15 04:31:24;;;;;;;;;;;;;;;8.80;46.90;98622.56;4942409;28;98447;-65
2024/01/15 04:33:51;;;;;;;;;;;;;;;8.82;47.64;98615.03;4961130;28;98464;-69
2024/01/15 04:36:16;;;;;;;;;;;;;;;8.83;47.22;98612.03;4940453;28;99104;-64
2024/01/15 04:38:43;;;;;;;;;;;;;;;8.84;47.52;98613.63;4941180;28;99773;-69
2024/01/15 04:41:13;;;;;;;;;;;;;;;8.84;47.20;98610.94;4928078;28;98000;-65
2024/01/15 04:43:39;;;;;;;;;;;;;;;8.87;46.98;98616.81;4943298;28;98299;-69
2024/01/15 04:46:06;;;;;;;;;;;;;;;8.87;47.37;98608.75;4930399;28;98511;-64
2024/01/15 04:48:33;;;;;;;;;;;;;;;8.89;47.22;98611.94;4942284;28;98272;-69
2024/01/15 04:50:59;;;;;;;;;;;;;;;8.89;46.79;98611.94;4931757;28;98227;-66
2024/01/15 04:53:25;;;;;;;;;;;;;;;8.89;47.34;98609.25;4937755;28;97992;-65
2024/01/15 04:55:51;;;;;;;;;;;;;;;8.88;47.26;98613.81;4926604;28;98258;-65
2024/01/15 04:58:17;;;;;;;;;;;;;;;8.88;46.49;98613.81;4944453;28;97944;-64
2024/01/15 05:00:43;;;;;;;;;;;;;;;8.87;47.23;98609.53;4931419;28;98235;-65
2024/01/15 05:03:09;;;;;;;;;;;;;;;8.87;47.24;98616.81;4940248;28;98292;-69
2024/01/15 05:05:36;;;;;;;;;;;;;;;8.86;47.31;98607.94;4946461;27;98092;-70
2024/01/15 05:08:02;;;;;;;;;;;;;;;8.86;47.73;98613.31;4960273;28;98223;-65
2024/01/15 05:10:28;;;;;;;;;;;;;;;8.84;47.00;98610.94;4963592;28;98620;-69
2024/01/15 05:12:54;;;;;;;;;;;;;;;8.82;47.17;98607.75;4942341;28;97949;-69
2024/01/15 05:15:20;;;;;;;;;;;;;;;8.82;46.97;98613.13;4934101;28;98880;-70
2024/01/15 05:17:46;;;;;;;;;;;;;;;8.82;46.54;98606.97;4930446;28;98938;-69
2024/01/15 05:20:12;;;;;;;;;;;;;;;8.82;47.15;98591.63;4927749;28;98354;-69
2024/01/15 05:22:39;;;;;;;;;;;;;;;8.81;47.49;98597.31;4948454;28;98542;-64
2024/01/15 05:25:05;;;;;;;;;;;;;;;8.81;46.84;98594.63;4939935;28;98036;-69
2024/01/15 05:27:31;;;;;;;;;;;;;;;8.80;46.67;98601.06;4920713;28;98663;-70
2024/01/15 05:29:58;;;;;;;;;;;;;;;8.80;47.45;98601.91;4925332;28;98404;-64
2024/01/15 05:32:24;;;;;;;;;;;;;;;8.79;46.90;98597.59;4927217;28;111468;-65
2024/01/15 05:34:50;;;;;;;;;;;;;;;8.79;47.41;98594.13;4941903;28;98816;-69
2024/01/15 05:37:17;;;;;;;;;;;;;;;8.79;46.75;98588.75;4943389;28;99231;-65
2024/01/15 05:39:43;;;;;;;;;;;;;;;8.77;47.21;98582.91;4943041;28;97864;-64
2024/01/15 05:42:09;;;;;;;;;;;;;;;8.78;46.90;98595.22;4955382;28;98247;-69
2024/01/15 05:44:35;;;;;;;;;;;;;;;8.77;46.93;98594.44;4939313;28;98988;-64
2024/01/15 05:47:03;;;;;;;;;;;;;;;8.76;47.43;98587.47;4939949;28;98417;-69
2024/01/15 05:49:30;;;;;;;;;;;;;;;8.76;47.11;98586.66;4955389;28;98160;-65
2024/01/15 05:51:56;;;;;;;;;;;;;;;8.76;46.66;98579.41;4919605;28;99753;-64
2024/01/15 05:54:22;;;;;;;;;;;;;;;8.76;46.91;98575.91;4931461;28;99466;-64
2024/01/15 05:56:48;;;;;;;;;;;;;;;8.75;47.25;98587.75;4920020;28;100352;-69
2024/01/15 05:59:15;;;;;;;;;;;;;;;8.74;46.84;98573.53;4924134;28;98061;-64
2024/01/15 06:01:41;;;;;;;;;;;;;;;8.73;46.88;98573.84;4940593;28;98984;-65
2024/01/15 06:04:07;;;;;;;;;;;;;;;8.73;47.12;98573.84;4919148;28;99057;-70
2024/01/15 06:06:33;;;;;;;;;;;;;;;8.72;47.33;98583.78;4919768;28;98270;-66
2024/01/15 06:09:05;;;;;;;;;;;;;;;8.72;46.59;98580.28;4923419;28;98234;-70
2024/01/15 06:11:31;;;;;;;;;;;;;;;8.71;46.91;98582.19;4937898;28;98372;-70
2024/01/15 06:13:57;;;;;;;;;;;;;;;8.72;46.91;98564.19;4917728;28;98083;-70
2024/01/15 06:16:24;;;;;;;;;;;;;;;8.71;47.07;98573.34;4922034;28;98375;-70
2024/01/15 06:18:50;;;;;;;;;;;;;;;8.71;47.19;98584.09;4935913;28;98346;-72
2024/01/15 06:21:16;;;;;;;;;;;;;;;8.72;46.82;98585.66;4934897;28;98309;-70
2024/01/15 06:23:43;;;;;;;;;;;;;;;8.69;47.49;98592.47;4920513;28;98260;-65
2024/01/15 06:26:11;;;;;;;;;;;;;;;8.70;46.78;98587.88;4923061;28;98098;-65
2024/01/15 06:28:37;;;;;;;;;;;;;;;8.70;47.13;98585.97;4937094;28;98303;-65
2024/01/15 06:31:04;;;;;;;;;;;;;;;8.70;47.02;98585.19;4938101;28;99414;-70
2024/01/15 06:33:30;;;;;;;;;;;;;;;8.69;47.17;98580.91;4934510;28;98170;-70
2024/01/15 06:35:56;;;;;;;;;;;;;;;8.70;46.59;98577.13;4920829;28;98228;-65
2024/01/15 06:38:23;;;;;;;;;;;;;;;8.69;46.91;98580.91;4923345;28;99958;-65
2024/01/15 06:40:49;;;;;;;;;;;;;;;8.68;47.02;98577.41;4928490;28;98168;-70
2024/01/15 06:43:15;;;;;;;;;;;;;;;8.68;46.94;98577.41;4924445;28;98683;-65
2024/01/15 06:45:42;;;;;;;;;;;;;;;8.68;46.99;98574.72;4940966;28;98070;-65
2024/01/15 06:48:08;;;;;;;;;;;;;;;8.68;46.86;98576.63;4922359;28;97904;-70
2024/01/15 06:50:34;;;;;;;;;;;;;;;8.67;46.98;98565.09;4937855;28;97962;-65
2024/01/15 06:53:01;;;;;;;;;;;;;;;8.67;46.98;98583.09;4938173;28;98287;-65
2024/01/15 06:55:27;;;;;;;;;;;;;;;8.66;46.90;98579.63;4927325;28;99444;-70
2024/01/15 06:57:53;;;;;;;;;;;;;;;8.66;46.61;98589.56;4942975;28;98136;-65
2024/01/15 07:00:19;;;;;;;;;;;;;;;8.67;47.07;98588.47;4931808;28;98529;-70
2024/01/15 07:02:46;;;;;;;;;;;;;;;8.67;46.74;98583.09;4928757;28;98131;-70
2024/01/15 07:05:12;;;;;;;;;;;;;;;8.68;46.44;98582.00;4946201;28;99640;-65
2024/01/15 07:07:38;;;;;;;;;;;;;;;8.67;46.71;98594.63;4945666;28;97990;-65
2024/01/15 07:10:05;;;;;;;;;;;;;;;8.68;47.12;98588.16;4928196;28;98468;-70
2024/01/15 07:12:31;;;;;;;;;;;;;;;8.69;46.46;98578.22;4926597;28;98113;-65
2024/01/15 07:14:58;;;;;;;;;;;;;;;8.68;47.00;98587.38;4929331;28;97816;-65
2024/01/15 07:17:24;;;;;;;;;;;;;;;8.69;46.92;98589.78;4925588;28;98268;-70
2024/01/15 07:19:50;;;;;;;;;;;;;;;8.69;47.46;98592.47;4930200;28;97981;-65
2024/01/15 07:22:17;;;;;;;;;;;;;;;8.70;46.39;98585.19;4941147;28;98415;-65
2024/01/15 07:24:43;;;;;;;;;;;;;;;8.70;47.27;98590.56;4943459;28;99530;-70
2024/01/15 07:27:09;;;;;;;;;;;;;;;8.69;46.54;98597.81;4928652;28;98347;-65
2024/01/15 07:29:37;;;;;;;;;;;;;;;8.70;47.23;98585.19;4926344;28;99007;-65
2024/01/15 07:32:04;;;;;;;;;;;;;;;8.70;47.42;98595.94;4940307;28;98723;-70
2024/01/15 07:34:30;;;;;;;;;;;;;;;8.68;47.13;98593.53;4927714;28;99353;-66
2024/01/15 07:36:56;;;;;;;;;;;;;;;8.69;47.10;98595.13;4926255;28;98184;-65
2024/01/15 07:39:24;;;;;;;;;;;;;;;8.69;46.59;98613.16;4929661;28;98122;-65
2024/01/15 07:41:50;;;;;;;;;;;;;;;8.69;47.13;98611.25;4930225;28;98091;-70
2024/01/15 07:44:16;;;;;;;;;;;;;;;8.69;47.43;98607.78;4928387;28;98137;-65
2024/01/15 07:46:45;;;;;;;;;;;;;;;8.70;46.78;98609.38;4944172;28;105840;-64
2024/01/15 07:49:12;;;;;;;;;;;;;;;8.71;46.50;98611.75;4929058;28;98270;-70
2024/01/15 07:51:38;;;;;;;;;;;;;;;8.72;47.17;98616.00;4945001;28;98143;-65
2024/01/15 07:54:04;;;;;;;;;;;;;;;8.74;46.31;98621.09;4929617;28;99466;-70
2024/01/15 07:56:30;;;;;;;;;;;;;;;8.76;46.65;98619.72;4942571;28;98044;-65
2024/01/15 07:58:56;;;;;;;;;;;;;;;8.78;46.87;98625.56;4932184;28;97957;-65
2024/01/15 08:01:22;;;;;;;;;;;;;;;8.78;46.56;98614.03;4928768;28;112774;-70
2024/01/15 08:03:48;;;;;;;;;;;;;;;8.80;46.95;98625.25;4946038;28;97904;-70
2024/01/15 08:06:14;;;;;;;;;;;;;;;8.82;46.41;98615.03;4925175;28;98226;-65
2024/01/15 08:08:40;;;;;;;;;;;;;;;8.83;46.65;98622.78;4940098;28;98336;-70
2024/01/15 08:11:07;;;;;;;;;;;;;;;8.84;47.11;98613.63;4930188;28;98380;-71
2024/01/15 08:13:33;;;;;;;;;;;;;;;8.88;47.03;98621.06;4943447;28;98032;-65
2024/01/15 08:15:59;;;;;;;;;;;;;;;8.89;46.64;98622.69;4926942;28;98004;-70
2024/01/15 08:18:25;;;;;;;;;;;;;;;8.90;47.25;98617.00;4928313;28;118249;-66
2024/01/15 08:20:52;;;;;;;;;;;;;;;8.91;47.18;98620.47;4940490;28;100128;-66
2024/01/15 08:23:18;;;;;;;;;;;;;;;8.90;46.71;98621.59;4926617;28;98345;-70
2024/01/15 08:25:44;;;;;;;;;;;;;;;8.90;47.24;98630.44;4948191;28;98515;-69
2024/01/15 08:28:11;;;;;;;;;;;;;;;8.91;46.62;98625.84;4929602;28;98046;-70
2024/01/15 08:30:37;;;;;;;;;;;;;;;8.93;46.44;98629.06;4928369;28;97960;-65
2024/01/15 08:33:03;;;;;;;;;;;;;;;8.94;46.31;98630.63;4931705;28;112809;-65
2024/01/15 08:35:29;;;;;;;;;;;;;;;8.94;47.06;98636.81;4922323;28;98410;-71
2024/01/15 08:37:55;;;;;;;;;;;;;;;8.94;46.67;98639.50;4927954;28;98191;-65
2024/01/15 08:40:21;;;;;;;;;;;;;;;8.96;46.99;98644.56;4943630;28;99687;-70
2024/01/15 08:42:47;;;;;;;;;;;;;;;8.94;46.93;98626.06;4926664;28;98251;-70
2024/01/15 08:45:13;;;;;;;;;;;;;;;8.97;46.86;98638.09;4927239;28;98426;-70
2024/01/15 08:47:39;;;;;;;;;;;;;;;9.02;46.79;98638.78;4932430;28;98070;-70
2024/01/15 08:50:06;;;;;;;;;;;;;;;9.05;46.24;98634.72;4926955;28;98018;-65
2024/01/15 08:52:32;;;;;;;;;;;;;;;9.06;46.58;98634.41;4940921;28;98037;-70
2024/01/15 08:54:58;;;;;;;;;;;;;;;9.07;46.79;98645.94;4927631;28;98239;-65
2024/01/15 08:57:24;;;;;;;;;;;;;;;9.10;46.28;98648.81;4928909;28;99736;-70
2024/01/15 08:59:51;;;;;;;;;;;;;;;9.13;46.87;98647.44;4928528;28;97941;-65
2024/01/15 09:02:17;;;;;;;;;;;;;;;9.15;46.61;98647.91;4926576;28;97984;-65
2024/01/15 09:04:43;;;;;;;;;;;;;;;9.16;46.57;98644.16;4930455;28;98300;-65
2024/01/15 09:07:09;;;;;;;;;;;;;;;9.23;46.79;98643.72;4926062;28;98285;-65
2024/01/15 09:09:35;;;;;;;;;;;;;;;9.35;46.33;98638.59;4937370;28;110804;-70
2024/01/15 09:12:02;;;;;;;;;;;;;;;9.45;46.57;98645.66;4940396;28;98011;-70
2024/01/15 09:14:29;;;;;;;;;;;;;;;9.44;46.42;98647.56;4933532;28;98164;-70
2024/01/15 09:16:56;;;;;;;;;;;;;;;9.45;46.57;98646.47;4943009;28;98585;-65
2024/01/15 09:19:21;;;;;;;;;;;;;;;9.44;46.47;98657.53;4927933;28;98245;-65
2024/01/15 09:21:48;;;;;;;;;;;;;;;9.41;46.74;98650.84;4929833;28;98393;-70
2024/01/15 09:24:13;;;;;;;;;;;;;;;9.43;46.08;98643.28;4952746;28;98200;-70
2024/01/15 09:26:40;;;;;;;;;;;;;;;9.46;46.90;98656.13;4943842;28;98113;-70
2024/01/15 09:29:06;;;;;;;;;;;;;;;9.42;46.87;98665.88;4932403;28;98140;-70
2024/01/15 09:31:32;;;;;;;;;;;;;;;9.40;47.07;98662.72;4928519;28;99080;-70
2024/01/15 09:34:00;;;;;;;;;;;;;;;9.39;46.43;98666.47;4930216;28;99390;-70
2024/01/15 09:36:26;;;;;;;;;;;;;;;9.40;46.90;98665.41;4946238;28;100288;-65
2024/01/15 09:38:52;;;;;;;;;;;;;;;9.40;46.57;98668.09;4930110;28;98064;-65
2024/01/15 09:41:18;;;;;;;;;;;;;;;9.38;46.82;98661.41;4958776;28;111664;-67
2024/01/15 09:43:45;;;;;;;;;;;;;;;9.39;46.14;98663.78;4940182;28;98046;-65
2024/01/15 09:46:11;;;;;;;;;;;;;;;9.44;46.81;98663.72;4930088;28;98336;-70
2024/01/15 09:48:38;;;;;;;;;;;;;;;9.46;46.82;98664.19;4922077;28;98561;-65
2024/01/15 09:51:05;;;;;;;;;;;;;;;9.49;46.98;98649.34;4940940;28;98355;-65
2024/01/15 09:53:31;;;;;;;;;;;;;;;9.51;46.56;98647.94;4940789;28;98105;-65
2024/01/15 09:55:58;;;;;;;;;;;;;;;9.52;46.37;98651.44;4923334;28;98296;-65
2024/01/15 09:58:25;;;;;;;;;;;;;;;9.53;46.56;98644.94;4927295;28;98588;-70
2024/01/15 10:00:51;;;;;;;;;;;;;;;9.54;46.71;98651.91;4927671;28;99730;-70
2024/01/15 10:03:17;;;;;;;;;;;;;;;9.57;46.71;98657.47;4940825;28;98123;-70
2024/01/15 10:05:44;;;;;;;;;;;;;;;9.64;46.50;98646.31;4939521;28;98831;-70
2024/01/15 10:08:10;;;;;;;;;;;;;;;9.66;46.76;98637.91;4947216;28;98179;-70
2024/01/15 10:10:37;;;;;;;;;;;;;;;9.70;46.57;98633.50;4930260;28;98258;-70
2024/01/15 10:13:04;;;;;;;;;;;;;;;9.81;46.33;98626.78;4930341;28;98476;-70
2024/01/15 10:15:33;;;;;;;;;;;;;;;9.83;46.72;98628.09;4928157;28;98631;-65
2024/01/15 10:17:59;;;;;;;;;;;;;;;9.87;46.17;98630.19;4937935;28;98307;-65
2024/01/15 10:20:25;;;;;;;;;;;;;;;9.90;46.77;98621.47;4942825;28;98037;-70
2024/01/15 10:22:51;;;;;;;;;;;;;;;9.90;46.13;98611.50;4924253;28;118689;-65
2024/01/15 10:25:23;;;;;;;;;;;;;;;9.90;46.83;98635.72;4931130;28;98964;-70
2024/01/15 10:28:01;;;;;;;;;;;;;;;9.90;46.58;98627.63;4940146;28;98163;-70
2024/01/15 10:30:27;;;;;;;;;;;;;;;9.87;46.22;98625.59;4940241;28;113394;-70
2024/01/15 10:33:03;;;;;;;;;;;;;;;9.86;46.87;98629.34;4923655;28;102200;-70
2024/01/15 10:35:33;;;;;;;;;;;;;;;9.89;46.19;98620.69;4922906;28;98256;-70
2024/01/15 10:38:00;;;;;;;;;;;;;;;9.94;46.85;98622.44;4944124;28;98083;-70
2024/01/15 10:40:27;;;;;;;;;;;;;;;9.98;46.60;98610.78;4930445;28;97903;-70
2024/01/15 10:42:53;;;;;;;;;;;;;;;10.03;46.24;98626.00;4930095;28;98057;-70
2024/01/15 10:45:19;;;;;;;;;;;;;;;10.05;46.48;98621.88;4940983;28;98666;-65
2024/01/15 10:47:46;;;;;;;;;;;;;;;10.04;46.10;98614.13;4947580;28;99021;-65
2024/01/15 10:50:12;;;;;;;;;;;;;;;10.03;46.66;98617.91;4925320;28;105836;-70
2024/01/15 10:52:40;;;;;;;;;;;;;;;10.03;46.57;98618.72;4928675;28;98134;-70
2024/01/15 10:55:09;;;;;;;;;;;;;;;10.07;46.56;98617.00;4930804;28;99598;-65
2024/01/15 10:57:36;;;;;;;;;;;;;;;10.11;46.63;98627.16;4932532;28;97930;-70
2024/01/15 11:00:05;;;;;;;;;;;;;;;10.13;46.47;98619.53;4946591;28;97955;-65
2024/01/15 11:02:34;;;;;;;;;;;;;;;10.20;46.48;98615.31;4944927;28;97925;-70
2024/01/15 11:05:00;;;;;;;;;;;;;;;10.25;46.39;98623.28;4961059;28;98544;-65
2024/01/15 11:07:27;;;;;;;;;;;;;;;10.27;46.53;98617.59;4943365;28;100353;-65
2024/01/15 11:09:53;;;;;;;;;;;;;;;10.30;46.28;98623.16;4949088;28;98101;-65
2024/01/15 11:12:19;;;;;;;;;;;;;;;10.35;45.90;98616.84;4939815;28;98138;-70
2024/01/15 11:14:49;;;;;;;;;;;;;;;10.36;46.25;98613.03;4928591;28;99878;-70
2024/01/15 11:17:17;;;;;;;;;;;;;;;10.49;46.60;98606.78;4919638;28;112616;-65
2024/01/15 11:19:52;;;;;;;;;;;;;;;10.56;46.23;98609.00;4927550;28;97918;-65
2024/01/15 11:22:33;;;;;;;;;;;;;;;10.56;46.45;98615.19;4946944;28;98748;-65
2024/01/15 11:25:14;;;;;;;;;;;;;;;10.66;45.99;98605.25;4958437;28;98151;-65
2024/01/15 11:27:44;;;;;;;;;;;;;;;10.78;46.37;98610.81;4945397;28;99512;-65
2024/01/15 11:30:11;;;;;;;;;;;;;;;10.85;46.20;98610.38;4941207;28;98901;-66
2024/01/15 11:32:41;;;;;;;;;;;;;;;10.85;46.09;98605.00;4927781;28;98032;-66
2024/01/15 11:35:08;;;;;;;;;;;;;;;10.86;46.27;98604.66;4932156;28;98202;-65
2024/01/15 11:37:56;;;;;;;;;;;;;;;10.85;46.49;98613.88;4926398;28;100138;-70
2024/01/15 11:40:23;;;;;;;;;;;;;;;10.82;46.19;98606.41;4962754;28;101792;-70
2024/01/15 11:42:49;;;;;;;;;;;;;;;10.80;46.38;98606.69;4945316;28;98019;-71
2024/01/15 11:45:21;;;;;;;;;;;;;;;10.79;46.58;98597.03;4930156;28;98314;-70
2024/01/15 11:48:14;;;;;;;;;;;;;;;10.79;46.23;98591.63;4945567;28;98269;-70
2024/01/15 11:50:42;;;;;;;;;;;;;;;10.74;46.61;98591.00;4945029;28;98072;-65
2024/01/15 11:53:14;;;;;;;;;;;;;;;10.72;46.55;98595.91;4950028;28;98290;-70
2024/01/15 11:55:41;;;;;;;;;;;;;;;10.66;46.67;98600.66;4945011;28;98078;-65
2024/01/15 11:58:10;;;;;;;;;;;;;;;10.63;46.66;98603.97;4944748;28;98044;-70
2024/01/15 12:00:46;;;;;;;;;;;;;;;10.57;46.72;98594.41;4941332;28;100044;-70
2024/01/15 12:03:12;;;;;;;;;;;;;;;10.51;46.41;98583.00;4956760;28;98163;-69
2024/01/15 12:05:39;;;;;;;;;;;;;;;10.50;46.38;98591.41;4928429;28;98381;-65
2024/01/15 12:08:11;;;;;;;;;;;;;;;10.48;46.51;98591.69;4943830;28;98256;-65
2024/01/15 12:10:38;;;;;;;;;;;;;;;10.45;46.80;98584.25;4947139;28;98321;-70
2024/01/15 12:13:14;;;;;;;;;;;;;;;10.40;46.93;98592.47;4947188;28;97934;-65
2024/01/15 12:15:43;;;;;;;;;;;;;;;10.36;46.74;98583.41;4943931;28;99534;-70
2024/01/15 12:18:10;;;;;;;;;;;;;;;10.36;46.81;98583.41;4929899;28;98102;-70
2024/01/15 12:20:37;;;;;;;;;;;;;;;10.40;46.43;98576.31;4930216;28;99105;-65
2024/01/15 12:23:03;;;;;;;;;;;;;;;10.42;46.68;98568.72;4931354;28;98075;-65
2024/01/15 12:25:32;;;;;;;;;;;;;;;10.42;46.35;98576.00;4945517;28;98832;-69
2024/01/15 12:27:59;;;;;;;;;;;;;;;10.40;46.90;98584.38;4926771;28;98400;-70
2024/01/15 12:30:27;;;;;;;;;;;;;;;10.37;46.40;98574.22;4944900;28;99330;-70
2024/01/15 12:32:53;;;;;;;;;;;;;;;10.38;46.77;98580.44;4932757;28;98118;-70
2024/01/15 12:35:19;;;;;;;;;;;;;;;10.40;46.58;98579.00;4931497;28;98443;-64
2024/01/15 12:37:46;;;;;;;;;;;;;;;10.40;46.85;98576.31;4933267;28;98202;-70
2024/01/15 12:40:12;;;;;;;;;;;;;;;10.41;46.52;98577.88;4933271;28;98202;-70
2024/01/15 12:42:40;;;;;;;;;;;;;;;10.37;46.65;98576.13;4938275;28;98237;-70
2024/01/15 12:45:06;;;;;;;;;;;;;;;10.34;46.80;98577.56;4958255;28;98382;-70
2024/01/15 12:47:32;;;;;;;;;;;;;;;10.34;46.43;98580.25;4942044;28;98274;-70
2024/01/15 12:50:01;;;;;;;;;;;;;;;10.34;46.47;98574.06;4927146;28;108796;-65